SE Lincoln WX Station Historical Data
 
Daily Summary for February 24, 2021 Units:  English    Metric   Both
Daily Weekly Monthly Yearly
  Current: High: Low: Average:
Temperature: 40.7 °F 44.9 °F 35 °F 38.4 °F
Dew Point: 29.2 °F 33.5 °F 26.8 °F 29.4 °F
Humidity: 63.5% 75% 62% 70%
Wind Speed: 3.5mph 7.3mph 2.1mph 4.4mph
Wind Gust: 10mph 18mph - -
WindNNW - - NW
Pressure: 30.24 in 30.24 in 29.88 in -
Precipitation: 0.00 in      
 
 
Tabular Data for February 24, 2021
Time Temperature Dew Point Pressure Wind Wind Speed Wind Gust Humidity Rainfall Rate (Hourly) solar
00:04 44.9 °F 33.5 °F 29.88 in WNW 2.3 mph 4 mph 64% 0.00 in 0 W/m2
00:09 44.8 °F 33.4 °F 29.88 in WNW 2.5 mph 4 mph 64% 0.00 in 0 W/m2
00:14 44.6 °F 33.2 °F 29.89 in WNW 2.1 mph 5 mph 64% 0.00 in 0 W/m2
00:19 44.5 °F 33.3 °F 29.89 in WNW 2.4 mph 4 mph 64.6% 0.00 in 0 W/m2
00:24 44.3 °F 33.3 °F 29.89 in WNW 2.8 mph 5 mph 65% 0.00 in 0 W/m2
00:29 44.1 °F 33.1 °F 29.90 in WNW 2.6 mph 5 mph 65% 0.00 in 0 W/m2
00:34 44 °F 33 °F 29.90 in NW 2.5 mph 5 mph 65% 0.00 in 0 W/m2
00:39 43.9 °F 32.9 °F 29.90 in WNW 2.7 mph 6 mph 65% 0.00 in 0 W/m2
00:44 43.8 °F 32.8 °F 29.91 in NW 3.2 mph 7 mph 65% 0.00 in 0 W/m2
00:49 43.8 °F 32.8 °F 29.91 in WNW 2.5 mph 7 mph 65% 0.00 in 0 W/m2
00:54 43.7 °F 32.7 °F 29.91 in WNW 2.7 mph 6 mph 65% 0.00 in 0 W/m2
00:59 43.6 °F 32.6 °F 29.92 in WNW 3.7 mph 7 mph 65% 0.00 in 0 W/m2
01:04 43.6 °F 32.2 °F 29.92 in NW 2.8 mph 7 mph 64.1% 0.00 in 0 W/m2
01:09 43.5 °F 32.1 °F 29.92 in WNW 4 mph 9 mph 64% 0.00 in 0 W/m2
01:14 43.4 °F 32 °F 29.92 in WNW 3 mph 5 mph 64% 0.00 in 0 W/m2
01:19 43.3 °F 32 °F 29.93 in WNW 3.6 mph 8 mph 64% 0.00 in 0 W/m2
01:24 43.2 °F 32 °F 29.93 in NW 3.3 mph 7 mph 64.4% 0.00 in 0 W/m2
01:29 43 °F 32.1 °F 29.93 in WNW 3.4 mph 8 mph 65% 0.00 in 0 W/m2
01:34 42.8 °F 31.9 °F 29.93 in WNW 3.5 mph 8 mph 65% 0.00 in 0 W/m2
01:39 42.6 °F 31.5 °F 29.94 in WNW 5.4 mph 10 mph 64.6% 0.00 in 0 W/m2
01:44 42.6 °F 31.3 °F 29.94 in WNW 3.6 mph 8 mph 63.9% 0.00 in 0 W/m2
01:49 42.5 °F 30.6 °F 29.94 in WNW 5.1 mph 12 mph 62.5% 0.00 in 0 W/m2
01:54 42.5 °F 30.4 °F 29.94 in NW 5.7 mph 11 mph 62% 0.00 in 0 W/m2
01:59 42.5 °F 30.4 °F 29.94 in NW 4.7 mph 9 mph 62% 0.00 in 0 W/m2
02:04 42.4 °F 30.3 °F 29.94 in NW 3.6 mph 8 mph 62.2% 0.00 in 0 W/m2
02:09 42.2 °F 30.5 °F 29.95 in NW 3 mph 9 mph 63% 0.00 in 0 W/m2
02:14 42 °F 30.4 °F 29.95 in WNW 3.4 mph 10 mph 63.3% 0.00 in 0 W/m2
02:19 41.7 °F 30.4 °F 29.95 in WNW 4.6 mph 9 mph 64% 0.00 in 0 W/m2
02:24 41.5 °F 30.2 °F 29.96 in WNW 5.1 mph 10 mph 64% 0.00 in 0 W/m2
02:29 41.3 °F 30.1 °F 29.96 in WNW 5.6 mph 13 mph 64% 0.00 in 0 W/m2
02:34 41.1 °F 29.9 °F 29.96 in NW 5.8 mph 14 mph 64% 0.00 in 0 W/m2
02:39 40.8 °F 29.7 °F 29.96 in NW 5.4 mph 16 mph 64.3% 0.00 in 0 W/m2
02:44 40.5 °F 29.7 °F 29.96 in NNW 5.8 mph 11 mph 65% 0.00 in 0 W/m2
02:49 40.2 °F 29.8 °F 29.96 in NW 4 mph 11 mph 65.9% 0.00 in 0 W/m2
02:54 40 °F 29.8 °F 29.96 in NW 3.4 mph 8 mph 66.6% 0.00 in 0 W/m2
02:59 39.7 °F 29.8 °F 29.97 in WNW 2.9 mph 7 mph 67.2% 0.00 in 0 W/m2
03:04 39.4 °F 29.7 °F 29.97 in WNW 3.4 mph 8 mph 68% 0.00 in 0 W/m2
03:09 39.2 °F 29.7 °F 29.97 in WNW 4.1 mph 10 mph 68.7% 0.00 in 0 W/m2
03:14 38.9 °F 29.6 °F 29.97 in NW 6.5 mph 12 mph 69% 0.00 in 0 W/m2
03:19 38.7 °F 29.7 °F 29.98 in NW 5.2 mph 11 mph 69.8% 0.00 in 0 W/m2
03:24 38.5 °F 29.6 °F 29.98 in WNW 5.7 mph 11 mph 70% 0.00 in 0 W/m2
03:29 38.3 °F 29.6 °F 29.98 in WNW 4.9 mph 11 mph 70.7% 0.00 in 0 W/m2
03:34 38.1 °F 29.5 °F 29.98 in NW 4.3 mph 12 mph 71% 0.00 in 0 W/m2
03:39 37.9 °F 29.4 °F 29.98 in NW 4.5 mph 10 mph 71% 0.00 in 0 W/m2
03:44 37.8 °F 29.4 °F 29.98 in WNW 4.9 mph 11 mph 71.4% 0.00 in 0 W/m2
03:49 37.5 °F 29.3 °F 29.98 in NW 4.4 mph 8 mph 72% 0.00 in 0 W/m2
03:54 37.4 °F 29.2 °F 29.98 in WNW 5.5 mph 13 mph 72% 0.00 in 0 W/m2
03:59 37.2 °F 29 °F 29.98 in NW 5.1 mph 10 mph 72% 0.00 in 0 W/m2
04:04 37.1 °F 29.1 °F 29.99 in NW 5.3 mph 11 mph 72.5% 0.00 in 0 W/m2
04:09 37 °F 29.2 °F 29.99 in WNW 4.8 mph 11 mph 73% 0.00 in 0 W/m2
04:14 36.8 °F 29 °F 29.99 in NW 5.6 mph 12 mph 73% 0.00 in 0 W/m2
04:19 36.7 °F 28.9 °F 30.00 in NW 6.7 mph 18 mph 73% 0.00 in 0 W/m2
04:24 36.6 °F 28.8 °F 30.00 in NW 5.6 mph 9 mph 73% 0.00 in 0 W/m2
04:29 36.5 °F 28.9 °F 29.99 in NW 5.1 mph 12 mph 73.6% 0.00 in 0 W/m2
04:34 36.4 °F 28.9 °F 30.00 in WNW 4.5 mph 8 mph 74% 0.00 in 0 W/m2
04:39 36.3 °F 28.8 °F 30.00 in NW 3.1 mph 7 mph 74% 0.00 in 0 W/m2
04:44 36.1 °F 28.6 °F 30.00 in WNW 4.5 mph 14 mph 74% 0.00 in 0 W/m2
04:49 36.1 °F 28.9 °F 30.00 in WNW 4.5 mph 11 mph 74.9% 0.00 in 0 W/m2
04:54 36 °F 28.9 °F 30.00 in WNW 3.4 mph 10 mph 75% 0.00 in 0 W/m2
04:59 35.9 °F 28.8 °F 30.00 in WNW 3.6 mph 8 mph 75% 0.00 in 0 W/m2
05:04 35.9 °F 28.8 °F 30.00 in WNW 3.4 mph 8 mph 75% 0.00 in 0 W/m2
05:09 35.8 °F 28.7 °F 30.01 in WNW 4 mph 7 mph 75% 0.00 in 0 W/m2
05:14 35.8 °F 28.7 °F 30.01 in NW 3.7 mph 11 mph 75% 0.00 in 0 W/m2
05:19 35.8 °F 28.7 °F 30.02 in NW 4 mph 9 mph 75% 0.00 in 0 W/m2
05:24 35.8 °F 28.7 °F 30.02 in WNW 4.2 mph 12 mph 75% 0.00 in 0 W/m2
05:29 35.8 °F 28.7 °F 30.02 in NW 3.5 mph 8 mph 75% 0.00 in 0 W/m2
05:34 35.8 °F 28.4 °F 30.03 in NW 4.1 mph 12 mph 74.2% 0.00 in 0 W/m2
05:39 35.8 °F 28.3 °F 30.03 in NW 3.7 mph 9 mph 74% 0.00 in 0 W/m2
05:44 35.8 °F 28.3 °F 30.04 in NNW 3.6 mph 10 mph 74% 0.00 in 0 W/m2
05:49 35.8 °F 28.1 °F 30.04 in NW 4.1 mph 12 mph 73.3% 0.00 in 0 W/m2
05:54 35.8 °F 28 °F 30.04 in NW 4.3 mph 11 mph 73% 0.00 in 0 W/m2
05:59 35.8 °F 28 °F 30.05 in NNW 3.8 mph 10 mph 73% 0.00 in 0 W/m2
06:04 35.8 °F 28 °F 30.05 in NW 4.5 mph 12 mph 73% 0.00 in 0 W/m2
06:09 35.7 °F 27.9 °F 30.05 in NNW 4.1 mph 12 mph 73% 0.00 in 0 W/m2
06:14 35.6 °F 27.9 °F 30.05 in NW 5.3 mph 12 mph 73.3% 0.00 in 0 W/m2
06:19 35.6 °F 27.8 °F 30.06 in NNW 5.5 mph 14 mph 73% 0.00 in 0 W/m2
06:24 35.5 °F 27.7 °F 30.06 in NW 6.3 mph 14 mph 73% 0.00 in 0 W/m2
06:29 35.5 °F 27.5 °F 30.06 in NW 7.2 mph 16 mph 72.4% 0.00 in 0 W/m2
06:34 35.4 °F 27.3 °F 30.06 in NNW 3.2 mph 11 mph 72% 0.00 in 0 W/m2
06:39 35.2 °F 26.9 °F 30.06 in NW 5 mph 14 mph 71.3% 0.00 in 0 W/m2
06:44 35.1 °F 26.8 °F 30.06 in NW 4.8 mph 12 mph 71.4% 0.00 in 0 W/m2
06:49 35 °F 26.9 °F 30.06 in NNW 5.4 mph 13 mph 72% 0.00 in 0 W/m2
06:54 35 °F 26.9 °F 30.06 in NNW 5.3 mph 11 mph 72% 0.00 in 0 W/m2
06:59 35 °F 26.9 °F 30.07 in NNW 4.7 mph 14 mph 72% 0.00 in 0 W/m2
07:04 35 °F 26.9 °F 30.07 in NW 4.2 mph 9 mph 72% 0.00 in 0 W/m2
07:09 35 °F 27.1 °F 30.07 in NW 5.3 mph 11 mph 72.8% 0.00 in 0 W/m2
07:14 35 °F 27.2 °F 30.07 in NNW 7.1 mph 12 mph 73% 0.00 in 7 W/m2
07:19 35.1 °F 27.3 °F 30.07 in NNW 4.2 mph 12 mph 73% 0.00 in 7 W/m2
07:24 35.1 °F 27.3 °F 30.08 in NNW 6.1 mph 15 mph 73% 0.00 in 14 W/m2
07:29 35.2 °F 27.4 °F 30.08 in NNW 4.7 mph 14 mph 73% 0.00 in 21 W/m2
07:34 35.2 °F 27.4 °F 30.08 in NNW 3.8 mph 10 mph 73% 0.00 in 30 W/m2
07:39 35.2 °F 27.4 °F 30.08 in NNW 6 mph 11 mph 73% 0.00 in 32 W/m2
07:44 35.2 °F 27.4 °F 30.08 in NNW 4.9 mph 11 mph 73% 0.00 in 37 W/m2
07:49 35.3 °F 27.5 °F 30.08 in NNW 6.1 mph 13 mph 73% 0.00 in 40 W/m2
07:54 35.4 °F 27.6 °F 30.07 in NNW 5.8 mph 13 mph 73% 0.00 in 44 W/m2
07:59 35.5 °F 27.7 °F 30.08 in NNW 6.5 mph 13 mph 73% 0.00 in 74 W/m2
08:04 35.6 °F 27.8 °F 30.08 in NNW 6.6 mph 15 mph 73% 0.00 in 79 W/m2
08:09 35.7 °F 27.9 °F 30.08 in NNW 6.5 mph 15 mph 73% 0.00 in 74 W/m2
08:14 35.8 °F 28 °F 30.08 in NNW 7.3 mph 17 mph 73% 0.00 in 69 W/m2
08:19 35.8 °F 28 °F 30.09 in NNW 4.7 mph 12 mph 73% 0.00 in 65 W/m2
08:24 35.9 °F 28.2 °F 30.10 in NNW 6 mph 13 mph 73.2% 0.00 in 54 W/m2
08:29 36 °F 28.5 °F 30.11 in NNW 4.4 mph 11 mph 74% 0.00 in 58 W/m2
08:34 36 °F 28.5 °F 30.13 in NNW 5.7 mph 11 mph 74% 0.00 in 62 W/m2
08:39 36 °F 28.5 °F 30.13 in NW 4.7 mph 13 mph 74% 0.00 in 79 W/m2
08:44 36 °F 28.5 °F 30.13 in North 4.5 mph 12 mph 74% 0.00 in 81 W/m2
08:49 36 °F 28.5 °F 30.14 in NNW 3.7 mph 12 mph 74% 0.00 in 79 W/m2
08:54 36.1 °F 28.6 °F 30.14 in NNW 4.2 mph 12 mph 74% 0.00 in 90 W/m2
08:59 36.1 °F 28.5 °F 30.14 in NW 6.5 mph 14 mph 73.5% 0.00 in 91 W/m2
09:04 36.2 °F 28.4 °F 30.15 in NNW 6.1 mph 15 mph 73% 0.00 in 86 W/m2
09:09 36.3 °F 28.5 °F 30.15 in NNW 4.7 mph 11 mph 73% 0.00 in 86 W/m2
09:14 36.4 °F 28.6 °F 30.16 in NNW 5.1 mph 12 mph 73% 0.00 in 88 W/m2
09:19 36.5 °F 28.7 °F 30.16 in NNW 5.3 mph 10 mph 73% 0.00 in 97 W/m2
09:24 36.5 °F 28.8 °F 30.16 in NNW 3.3 mph 9 mph 73.4% 0.00 in 97 W/m2
09:29 36.6 °F 29 °F 30.17 in NW 3.9 mph 9 mph 73.7% 0.00 in 98 W/m2
09:34 36.7 °F 28.9 °F 30.17 in NNW 4.1 mph 13 mph 73.1% 0.00 in 102 W/m2
09:39 36.7 °F 29.2 °F 30.18 in NNW 3.6 mph 10 mph 73.8% 0.00 in 107 W/m2
09:44 36.7 °F 29.2 °F 30.18 in NNW 3.2 mph 7 mph 74% 0.00 in 123 W/m2
09:49 36.9 °F 29.4 °F 30.18 in NNW 3 mph 11 mph 74% 0.00 in 137 W/m2
09:54 37 °F 29.2 °F 30.18 in NNW 3.8 mph 13 mph 73% 0.00 in 155 W/m2
09:59 37.1 °F 29.3 °F 30.19 in North 3.7 mph 13 mph 73% 0.00 in 156 W/m2
10:04 37.2 °F 29 °F 30.19 in NNW 4.5 mph 9 mph 72% 0.00 in 155 W/m2
10:09 37.3 °F 29.4 °F 30.19 in North 3.1 mph 7 mph 72.7% 0.00 in 165 W/m2
10:14 37.5 °F 29.3 °F 30.19 in NNW 3.4 mph 8 mph 72% 0.00 in 190 W/m2
10:19 37.6 °F 29.5 °F 30.20 in NNW 4.2 mph 9 mph 72.3% 0.00 in 204 W/m2
10:24 37.7 °F 29.5 °F 30.20 in NW 5.4 mph 14 mph 72% 0.00 in 214 W/m2
10:29 37.7 °F 29.5 °F 30.20 in NNW 4.3 mph 9 mph 72% 0.00 in 211 W/m2
10:34 37.8 °F 29.5 °F 30.20 in NNW 4.5 mph 11 mph 71.7% 0.00 in 260 W/m2
10:39 37.9 °F 29.4 °F 30.21 in NNW 4.4 mph 15 mph 71.1% 0.00 in 279 W/m2
10:44 38 °F 29.5 °F 30.21 in NNW 4.5 mph 12 mph 71% 0.00 in 279 W/m2
10:49 38.3 °F 29.6 °F 30.22 in NNW 4.7 mph 12 mph 70.7% 0.00 in 297 W/m2
10:54 38.3 °F 29.4 °F 30.22 in NNW 4 mph 11 mph 70% 0.00 in 311 W/m2
10:59 38.5 °F 29.5 °F 30.22 in NNW 5.6 mph 10 mph 69.7% 0.00 in 306 W/m2
11:04 38.5 °F 29.6 °F 30.22 in NNW 3 mph 10 mph 69.8% 0.00 in 357 W/m2
11:09 38.8 °F 29.7 °F 30.23 in NNW 5.6 mph 11 mph 69.4% 0.00 in 434 W/m2
11:14 39.1 °F 29.7 °F 30.22 in NNW 5.2 mph 12 mph 68.7% 0.00 in 425 W/m2
11:19 39.3 °F 29.6 °F 30.23 in North 4.6 mph 10 mph 68% 0.00 in 327 W/m2
11:24 39.3 °F 29.6 °F 30.23 in NNW 3.8 mph 9 mph 68% 0.00 in 434 W/m2
11:29 39.7 °F 30 °F 30.23 in NNW 2.3 mph 8 mph 67.9% 0.00 in 492 W/m2
11:34 40.7 °F 30.4 °F 30.23 in NNW 3.8 mph 8 mph 66.5% 0.00 in 592 W/m2
11:39 41.3 °F 30.3 °F 30.23 in NNW 3.6 mph 8 mph 64.7% 0.00 in 512 W/m2
11:44 41.1 °F 29.4 °F 30.24 in NNW 5.3 mph 10 mph 62.9% 0.00 in 598 W/m2
11:49 40.9 °F 29.7 °F 30.24 in NNW 3.4 mph 7 mph 64% 0.00 in 536 W/m2
11:54 41.3 °F 30.1 °F 30.24 in North 4.6 mph 8 mph 64% 0.00 in 907 W/m2
11:59 41.8 °F 30 °F 30.24 in NNW 4.4 mph 12 mph 62.6% 0.00 in 557 W/m2
12:04 41.3 °F 29.4 °F 30.24 in NNW 3.5 mph 13 mph 62.2% 0.00 in 455 W/m2
12:09 40.9 °F 29.4 °F 30.24 in NW 5.3 mph 10 mph 63.2% 0.00 in 378 W/m2
12:14 40.7 °F 29.2 °F 30.24 in NNW 3.5 mph 10 mph 63.5% 0.00 in 413 W/m2
66th and South
Compliments of Weather Underground - 12.51 mb